createdAt,value
2024-04-14T00:00:51.018Z,17.38
2024-04-14T00:01:57.855Z,17.33
2024-04-14T00:03:04.575Z,17.31
2024-04-14T00:04:11.412Z,17.28
2024-04-14T00:05:18.257Z,17.24
2024-04-14T00:06:25.147Z,17.22
2024-04-14T00:07:31.866Z,17.19
2024-04-14T00:08:38.574Z,17.17
2024-04-14T00:09:45.332Z,17.17
2024-04-14T00:10:52.066Z,17.17
2024-04-14T00:11:58.754Z,17.15
2024-04-14T00:13:05.540Z,17.11
2024-04-14T00:14:12.337Z,17.04
2024-04-14T00:15:19.075Z,16.99
2024-04-14T00:16:25.789Z,16.97
2024-04-14T00:17:32.557Z,16.96
2024-04-14T00:18:39.790Z,16.97
2024-04-14T00:19:47.068Z,16.99
2024-04-14T00:20:54.288Z,16.99
2024-04-14T00:22:01.092Z,16.98
2024-04-14T00:23:07.813Z,16.97
2024-04-14T00:24:14.523Z,16.96
2024-04-14T00:25:21.247Z,16.95
2024-04-14T00:26:28.018Z,16.92
2024-04-14T00:27:34.765Z,16.86
2024-04-14T00:28:41.463Z,16.83
2024-04-14T00:29:48.201Z,16.75
2024-04-14T00:30:55.108Z,16.71
2024-04-14T00:32:02.071Z,16.70
2024-04-14T00:33:08.835Z,16.75
2024-04-14T00:34:15.642Z,16.80
2024-04-14T00:35:22.325Z,16.88
2024-04-14T00:36:29.110Z,16.93
2024-04-14T00:37:35.820Z,16.99
2024-04-14T00:38:42.534Z,17.02
2024-04-14T00:39:49.324Z,17.06
2024-04-14T00:40:56.036Z,17.10
2024-04-14T00:42:02.796Z,17.09
2024-04-14T00:43:09.542Z,17.08
2024-04-14T00:44:16.263Z,17.11
2024-04-14T00:45:23.025Z,17.11
2024-04-14T00:46:29.751Z,17.07
2024-04-14T00:47:36.595Z,17.07
2024-04-14T00:48:43.419Z,17.05
2024-04-14T00:49:50.162Z,17.00
2024-04-14T00:50:56.898Z,16.97
2024-04-14T00:52:03.727Z,16.92
2024-04-14T00:53:10.492Z,16.88
2024-04-14T00:54:17.214Z,16.83
2024-04-14T00:55:23.937Z,16.78
2024-04-14T00:56:30.674Z,16.69
2024-04-14T00:57:37.489Z,16.63
2024-04-14T00:58:44.252Z,16.59
2024-04-14T00:59:50.972Z,16.57
2024-04-14T01:00:57.784Z,16.54
2024-04-14T01:02:07.468Z,16.48
2024-04-14T01:03:14.427Z,16.47
2024-04-14T01:04:21.214Z,16.46
2024-04-14T01:05:27.939Z,16.45
2024-04-14T01:06:34.700Z,16.42
2024-04-14T01:07:41.413Z,16.40
2024-04-14T01:08:48.140Z,16.37
2024-04-14T01:09:54.962Z,16.35
2024-04-14T01:11:01.729Z,16.32
2024-04-14T01:12:08.442Z,16.35
2024-04-14T01:13:15.145Z,16.36
2024-04-14T01:14:21.893Z,16.38
2024-04-14T01:15:28.601Z,16.38
2024-04-14T01:16:35.316Z,16.38
2024-04-14T01:17:42.167Z,16.39
2024-04-14T01:18:49.004Z,16.37
2024-04-14T01:19:55.686Z,16.36
2024-04-14T01:21:02.413Z,16.36
2024-04-14T01:22:09.202Z,16.40
2024-04-14T01:23:15.932Z,16.42
2024-04-14T01:24:22.670Z,16.40
2024-04-14T01:25:29.396Z,16.37
2024-04-14T01:26:36.114Z,16.31
2024-04-14T01:27:42.895Z,16.22
2024-04-14T01:28:49.615Z,16.11
2024-04-14T01:29:56.326Z,16.05
2024-04-14T01:31:03.168Z,16.02
2024-04-14T01:32:10.047Z,16.03
2024-04-14T01:33:16.783Z,16.05
2024-04-14T01:34:23.494Z,16.01
2024-04-14T01:35:30.223Z,15.97
2024-04-14T01:36:36.969Z,15.93
2024-04-14T01:37:43.745Z,15.84
2024-04-14T01:38:50.453Z,15.82
2024-04-14T01:39:57.317Z,15.82
2024-04-14T01:41:04.089Z,15.83
2024-04-14T01:42:10.816Z,15.89
2024-04-14T01:43:17.564Z,15.99
2024-04-14T01:44:24.307Z,16.07
2024-04-14T01:45:31.110Z,16.14
2024-04-14T01:46:37.840Z,16.20
2024-04-14T01:47:44.673Z,16.22
2024-04-14T01:48:51.618Z,16.26
2024-04-14T01:49:58.342Z,16.27
2024-04-14T01:51:05.079Z,16.26
2024-04-14T01:52:11.795Z,16.23
2024-04-14T01:53:18.517Z,16.20
2024-04-14T01:54:25.269Z,16.16
2024-04-14T01:55:31.990Z,16.16
2024-04-14T01:56:38.745Z,16.16
2024-04-14T01:57:45.513Z,16.14
2024-04-14T01:58:52.227Z,16.13
2024-04-14T01:59:58.965Z,16.12
2024-04-14T02:01:05.756Z,16.08
2024-04-14T02:02:12.513Z,16.06
2024-04-14T02:03:19.381Z,16.04
2024-04-14T02:04:26.266Z,16.00
2024-04-14T02:05:32.977Z,15.89
2024-04-14T02:06:39.721Z,15.80
2024-04-14T02:07:46.436Z,15.74
2024-04-14T02:08:53.160Z,15.71
2024-04-14T02:09:59.924Z,15.71
2024-04-14T02:11:06.684Z,15.74
2024-04-14T02:12:13.389Z,15.81
2024-04-14T02:13:20.124Z,15.86
2024-04-14T02:14:26.857Z,15.89
2024-04-14T02:15:33.575Z,15.93
2024-04-14T02:16:40.297Z,16.00
2024-04-14T02:17:47.082Z,16.03
2024-04-14T02:18:53.879Z,16.04
2024-04-14T02:20:00.603Z,16.03
2024-04-14T02:21:07.322Z,15.98
2024-04-14T02:22:14.046Z,15.96
2024-04-14T02:23:20.801Z,15.95
2024-04-14T02:24:27.569Z,15.94
2024-04-14T02:25:34.228Z,15.93
2024-04-14T02:26:40.990Z,15.89
2024-04-14T02:27:47.715Z,15.87
2024-04-14T02:28:54.442Z,15.86
2024-04-14T02:30:01.197Z,15.86
2024-04-14T02:31:07.928Z,15.85
2024-04-14T02:32:14.713Z,15.87
2024-04-14T02:33:21.442Z,15.85
2024-04-14T02:34:28.159Z,15.83
2024-04-14T02:35:34.892Z,15.82
2024-04-14T02:36:41.633Z,15.81
2024-04-14T02:37:48.430Z,15.79
2024-04-14T02:38:55.163Z,15.82
2024-04-14T02:40:01.930Z,15.84
2024-04-14T02:41:08.652Z,15.86
2024-04-14T02:42:15.381Z,15.84
2024-04-14T02:43:22.138Z,15.83
2024-04-14T02:44:28.863Z,15.85
2024-04-14T02:45:35.632Z,15.83
2024-04-14T02:46:42.342Z,15.83
2024-04-14T02:47:49.108Z,15.78
2024-04-14T02:48:55.934Z,15.75
2024-04-14T02:50:02.746Z,15.73
2024-04-14T02:51:09.484Z,15.70
2024-04-14T02:52:16.229Z,15.66
2024-04-14T02:53:22.976Z,15.60
2024-04-14T02:54:29.719Z,15.58
2024-04-14T02:55:36.428Z,15.57
2024-04-14T02:56:43.223Z,15.54
2024-04-14T02:57:49.932Z,15.50
2024-04-14T02:58:56.659Z,15.47
2024-04-14T03:00:03.369Z,15.47
2024-04-14T03:01:10.215Z,15.48
2024-04-14T03:02:17.043Z,15.48
2024-04-14T03:03:23.813Z,15.46
2024-04-14T03:04:30.617Z,15.44
2024-04-14T03:05:37.403Z,15.45
2024-04-14T03:06:44.194Z,15.47
2024-04-14T03:07:50.987Z,15.49
2024-04-14T03:08:57.749Z,15.52
2024-04-14T03:10:04.493Z,15.55
2024-04-14T03:11:11.233Z,15.60
2024-04-14T03:12:17.916Z,15.64
2024-04-14T03:13:24.678Z,15.66
2024-04-14T03:14:31.412Z,15.67
2024-04-14T03:15:38.167Z,15.67
2024-04-14T03:16:44.984Z,15.67
2024-04-14T03:17:51.802Z,15.64
2024-04-14T03:18:58.708Z,15.61
2024-04-14T03:20:05.547Z,15.60
2024-04-14T03:21:12.264Z,15.59
2024-04-14T03:22:18.974Z,15.57
2024-04-14T03:23:25.754Z,15.54
2024-04-14T03:24:32.518Z,15.48
2024-04-14T03:25:39.258Z,15.44
2024-04-14T03:26:45.989Z,15.35
2024-04-14T03:27:52.732Z,15.31
2024-04-14T03:28:59.425Z,15.31
2024-04-14T03:30:06.161Z,15.29
2024-04-14T03:31:13.037Z,15.29
2024-04-14T03:32:19.783Z,15.33
2024-04-14T03:33:26.518Z,15.31
2024-04-14T03:34:33.242Z,15.28
2024-04-14T03:35:39.957Z,15.26
2024-04-14T03:36:46.723Z,15.24
2024-04-14T03:37:53.425Z,15.23
2024-04-14T03:39:00.172Z,15.23
2024-04-14T03:40:06.923Z,15.22
2024-04-14T03:41:13.617Z,15.20
2024-04-14T03:42:20.317Z,15.19
2024-04-14T03:43:27.060Z,15.18
2024-04-14T03:44:33.809Z,15.19
2024-04-14T03:45:40.595Z,15.21
2024-04-14T03:46:47.440Z,15.25
2024-04-14T03:47:54.238Z,15.28
2024-04-14T03:49:01.002Z,15.28
2024-04-14T03:50:07.732Z,15.28
2024-04-14T03:51:14.448Z,15.31
2024-04-14T03:52:21.177Z,15.34
2024-04-14T03:53:27.887Z,15.34
2024-04-14T03:54:34.659Z,15.36
2024-04-14T03:55:41.347Z,15.35
2024-04-14T03:56:48.070Z,15.33
2024-04-14T03:57:54.946Z,15.30
2024-04-14T03:59:01.703Z,15.30
2024-04-14T04:00:08.448Z,15.27
2024-04-14T04:01:15.248Z,15.21
2024-04-14T04:02:22.091Z,15.17
2024-04-14T04:03:28.841Z,15.15
2024-04-14T04:04:35.631Z,15.12
2024-04-14T04:05:42.332Z,15.11
2024-04-14T04:06:49.085Z,15.14
2024-04-14T04:07:55.794Z,15.18
2024-04-14T04:09:02.537Z,15.23
2024-04-14T04:10:09.251Z,15.30
2024-04-14T04:11:15.983Z,15.33
2024-04-14T04:12:22.693Z,15.34
2024-04-14T04:13:29.419Z,15.35
2024-04-14T04:14:36.187Z,15.37
2024-04-14T04:15:42.939Z,15.41
2024-04-14T04:16:49.699Z,15.43
2024-04-14T04:17:56.545Z,15.41
2024-04-14T04:19:11.280Z,15.38
2024-04-14T04:20:14.919Z,15.34
2024-04-14T04:21:21.637Z,15.28
2024-04-14T04:22:28.343Z,15.23
2024-04-14T04:23:35.075Z,15.17
2024-04-14T04:24:41.851Z,15.12
2024-04-14T04:25:48.562Z,15.06
2024-04-14T04:26:55.339Z,15.00
2024-04-14T04:28:02.051Z,14.94
2024-04-14T04:29:08.810Z,14.87
2024-04-14T04:30:15.532Z,14.85
2024-04-14T04:31:22.240Z,14.86
2024-04-14T04:32:29.066Z,14.84
2024-04-14T04:33:35.958Z,14.82
2024-04-14T04:34:42.746Z,14.82
2024-04-14T04:35:49.475Z,14.83
2024-04-14T04:36:56.310Z,14.80
2024-04-14T04:38:03.061Z,14.75
2024-04-14T04:39:09.863Z,14.74
2024-04-14T04:40:16.565Z,14.73
2024-04-14T04:41:23.282Z,14.73
2024-04-14T04:42:30.025Z,14.74
2024-04-14T04:43:36.737Z,14.74
2024-04-14T04:44:43.469Z,14.74
2024-04-14T04:45:50.223Z,14.75
2024-04-14T04:46:56.912Z,14.75
2024-04-14T04:48:03.721Z,14.76
2024-04-14T04:49:10.588Z,14.76
2024-04-14T04:50:17.371Z,14.79
2024-04-14T04:51:24.130Z,14.81
2024-04-14T04:52:30.866Z,14.82
2024-04-14T04:53:37.576Z,14.84
2024-04-14T04:54:44.349Z,14.83
2024-04-14T04:55:51.019Z,14.76
2024-04-14T04:56:57.750Z,14.72
2024-04-14T04:58:04.562Z,14.67
2024-04-14T04:59:11.290Z,14.66
2024-04-14T05:00:18.028Z,14.68
2024-04-14T05:01:24.886Z,14.71
2024-04-14T05:02:31.684Z,14.76
2024-04-14T05:03:38.666Z,14.79
2024-04-14T05:04:45.576Z,14.83
2024-04-14T05:05:52.267Z,14.86
2024-04-14T05:06:59.101Z,14.86
2024-04-14T05:08:05.848Z,14.86
2024-04-14T05:09:12.575Z,14.86
2024-04-14T05:10:19.297Z,14.84
2024-04-14T05:11:26.112Z,14.83
2024-04-14T05:12:32.916Z,14.83
2024-04-14T05:13:39.799Z,14.86
2024-04-14T05:14:46.533Z,14.88
2024-04-14T05:15:53.308Z,14.87
2024-04-14T05:17:00.020Z,14.87
2024-04-14T05:18:06.871Z,14.90
2024-04-14T05:19:13.681Z,14.94
2024-04-14T05:20:20.410Z,14.99
2024-04-14T05:21:27.187Z,15.00
2024-04-14T05:22:33.931Z,15.03
2024-04-14T05:23:40.687Z,15.08
2024-04-14T05:24:47.400Z,15.09
2024-04-14T05:25:54.112Z,15.09
2024-04-14T05:27:00.834Z,15.11
2024-04-14T05:28:07.576Z,15.11
2024-04-14T05:29:14.305Z,15.10
2024-04-14T05:30:21.036Z,15.06
2024-04-14T05:31:27.735Z,14.98
2024-04-14T05:32:35.900Z,14.94
2024-04-14T05:33:44.664Z,14.90
2024-04-14T05:34:51.384Z,14.89
2024-04-14T05:35:58.174Z,14.91
2024-04-14T05:37:04.918Z,14.96
2024-04-14T05:38:11.612Z,15.01
2024-04-14T05:39:18.351Z,15.09
2024-04-14T05:40:25.068Z,15.17
2024-04-14T05:41:31.793Z,15.22
2024-04-14T05:42:38.608Z,15.30
2024-04-14T05:43:45.351Z,15.37
2024-04-14T05:44:52.086Z,15.43
2024-04-14T05:45:58.883Z,15.49
2024-04-14T05:47:05.773Z,15.57
2024-04-14T05:48:12.570Z,15.64
2024-04-14T05:49:20.040Z,15.70
2024-04-14T05:50:26.875Z,15.77
2024-04-14T05:51:33.641Z,15.80
2024-04-14T05:52:40.330Z,15.84
2024-04-14T05:53:47.037Z,15.87
2024-04-14T05:54:53.840Z,15.89
2024-04-14T05:56:00.580Z,15.92
2024-04-14T05:57:07.274Z,15.97
2024-04-14T05:58:13.998Z,16.02
2024-04-14T05:59:20.756Z,16.04
2024-04-14T06:00:27.554Z,16.05
2024-04-14T06:01:34.456Z,16.07
2024-04-14T06:02:41.297Z,16.08
2024-04-14T06:03:48.079Z,16.11
2024-04-14T06:04:54.906Z,16.15
2024-04-14T06:06:01.608Z,16.18
2024-04-14T06:07:08.375Z,16.21
2024-04-14T06:08:15.066Z,16.24
2024-04-14T06:09:21.776Z,16.25
2024-04-14T06:10:28.547Z,16.27
2024-04-14T06:11:35.252Z,16.28
2024-04-14T06:12:41.987Z,16.31
2024-04-14T06:13:48.691Z,16.35
2024-04-14T06:14:55.405Z,16.35
2024-04-14T06:16:02.249Z,16.39
2024-04-14T06:17:09.072Z,16.40
2024-04-14T06:18:15.763Z,16.42
2024-04-14T06:19:22.465Z,16.44
2024-04-14T06:20:29.218Z,16.48
2024-04-14T06:21:35.990Z,16.50
2024-04-14T06:22:42.694Z,16.54
2024-04-14T06:23:49.408Z,16.60
2024-04-14T06:24:56.222Z,16.62
2024-04-14T06:26:03.003Z,16.66
2024-04-14T06:27:09.763Z,16.67
2024-04-14T06:28:16.531Z,16.67
2024-04-14T06:29:23.255Z,16.69
2024-04-14T06:30:30.062Z,16.70
2024-04-14T06:31:36.751Z,16.72
2024-04-14T06:32:43.567Z,16.74
2024-04-14T06:33:50.432Z,16.74
2024-04-14T06:34:57.259Z,16.77
2024-04-14T06:36:04.026Z,16.79
2024-04-14T06:37:10.744Z,16.82
2024-04-14T06:38:17.472Z,16.86
2024-04-14T06:39:24.209Z,16.89
2024-04-14T06:40:30.935Z,16.93
2024-04-14T06:41:37.672Z,16.96
2024-04-14T06:42:44.447Z,16.99
2024-04-14T06:43:51.134Z,17.03
2024-04-14T06:44:57.887Z,17.07
2024-04-14T06:46:04.693Z,17.12
2024-04-14T06:47:11.414Z,17.16
2024-04-14T06:48:18.163Z,17.18
2024-04-14T06:49:24.861Z,17.20
2024-04-14T06:50:31.597Z,17.19
2024-04-14T06:51:38.379Z,17.17
2024-04-14T06:52:45.162Z,17.17
2024-04-14T06:53:51.877Z,17.16
2024-04-14T06:54:58.668Z,17.18
2024-04-14T06:56:05.477Z,17.19
2024-04-14T06:57:12.223Z,17.21
2024-04-14T06:58:18.932Z,17.23
2024-04-14T06:59:25.637Z,17.23
2024-04-14T07:00:32.468Z,17.24
2024-04-14T07:01:39.413Z,17.25
2024-04-14T07:02:46.166Z,17.28
2024-04-14T07:03:52.925Z,17.27
2024-04-14T07:04:59.705Z,17.26
2024-04-14T07:06:06.467Z,17.25
2024-04-14T07:07:13.198Z,17.26
2024-04-14T07:08:19.933Z,17.29
2024-04-14T07:09:26.676Z,17.34
2024-04-14T07:10:33.416Z,17.37
2024-04-14T07:11:40.234Z,17.42
2024-04-14T07:12:47.104Z,17.48
2024-04-14T07:13:53.890Z,17.51
2024-04-14T07:15:00.612Z,17.54
2024-04-14T07:16:07.421Z,17.56
2024-04-14T07:17:14.269Z,17.61
2024-04-14T07:18:21.051Z,17.66
2024-04-14T07:19:27.890Z,17.70
2024-04-14T07:20:34.632Z,17.74
2024-04-14T07:21:41.430Z,17.78
2024-04-14T07:22:48.163Z,17.81
2024-04-14T07:23:54.862Z,17.78
2024-04-14T07:25:01.846Z,17.77
2024-04-14T07:26:08.690Z,17.79
2024-04-14T07:27:15.452Z,17.80
2024-04-14T07:28:22.277Z,17.83
2024-04-14T07:29:28.993Z,17.86
2024-04-14T07:30:35.744Z,17.91
2024-04-14T07:31:42.458Z,17.96
2024-04-14T07:32:49.283Z,18.00
2024-04-14T07:33:56.052Z,18.07
2024-04-14T07:35:02.784Z,18.11
2024-04-14T07:36:09.486Z,18.16
2024-04-14T07:37:16.250Z,18.21
2024-04-14T07:38:22.980Z,18.27
2024-04-14T07:39:29.721Z,18.31
2024-04-14T07:40:36.419Z,18.35
2024-04-14T07:41:43.141Z,18.38
2024-04-14T07:42:50.063Z,18.42
2024-04-14T07:43:56.933Z,18.45
2024-04-14T07:45:03.636Z,18.48
2024-04-14T07:46:10.407Z,18.50
2024-04-14T07:47:17.175Z,18.50
2024-04-14T07:48:24.004Z,18.52
2024-04-14T07:49:30.833Z,18.53
2024-04-14T07:50:37.599Z,18.55
2024-04-14T07:51:44.362Z,18.57
2024-04-14T07:52:51.123Z,18.61
2024-04-14T07:53:57.855Z,18.64
2024-04-14T07:55:04.653Z,18.67
2024-04-14T07:56:11.362Z,18.69
2024-04-14T07:57:18.092Z,18.72
2024-04-14T07:58:24.854Z,18.77
2024-04-14T07:59:31.588Z,18.81
2024-04-14T08:00:38.392Z,18.85
2024-04-14T08:01:45.179Z,18.89
2024-04-14T08:02:51.991Z,18.92
2024-04-14T08:03:58.837Z,18.97
2024-04-14T08:05:05.696Z,19.02
2024-04-14T08:06:12.418Z,19.06
2024-04-14T08:07:19.149Z,19.09
2024-04-14T08:08:25.917Z,19.12
2024-04-14T08:09:32.717Z,19.16
2024-04-14T08:10:39.466Z,19.20
2024-04-14T08:11:46.213Z,19.23
2024-04-14T08:12:52.984Z,19.27
2024-04-14T08:13:59.729Z,19.32
2024-04-14T08:15:06.438Z,19.36
2024-04-14T08:16:13.492Z,19.39
2024-04-14T08:17:20.352Z,19.43
2024-04-14T08:18:27.131Z,19.45
2024-04-14T08:19:33.871Z,19.47
2024-04-14T08:20:40.590Z,19.51
2024-04-14T08:21:47.352Z,19.55
2024-04-14T08:22:54.107Z,19.60
2024-04-14T08:24:00.870Z,19.64
2024-04-14T08:25:07.672Z,19.68
2024-04-14T08:26:14.423Z,19.71
2024-04-14T08:27:21.152Z,19.74
2024-04-14T08:28:27.926Z,19.76
2024-04-14T08:29:34.662Z,19.78
2024-04-14T08:30:41.440Z,19.82
2024-04-14T08:31:48.171Z,19.86
2024-04-14T08:32:54.939Z,19.88
2024-04-14T08:34:05.322Z,19.92
2024-04-14T08:35:13.305Z,19.95
2024-04-14T08:36:20.001Z,19.97
2024-04-14T08:37:26.769Z,20.01
2024-04-14T08:38:33.527Z,20.04
2024-04-14T08:39:40.295Z,20.10
2024-04-14T08:40:47.030Z,20.15
2024-04-14T08:41:53.770Z,20.20
2024-04-14T08:43:00.587Z,20.24
2024-04-14T08:44:07.421Z,20.27
2024-04-14T08:45:14.156Z,20.30
2024-04-14T08:46:20.983Z,20.32
2024-04-14T08:47:27.800Z,20.34
2024-04-14T08:48:34.587Z,20.37
2024-04-14T08:49:41.375Z,20.38
2024-04-14T08:50:48.122Z,20.42
2024-04-14T08:51:54.924Z,20.49
2024-04-14T08:53:01.610Z,20.54
2024-04-14T08:54:08.385Z,20.60
2024-04-14T08:55:15.111Z,20.68
2024-04-14T08:56:21.851Z,20.76
2024-04-14T08:57:28.612Z,20.85
2024-04-14T08:58:35.317Z,20.94
2024-04-14T08:59:42.073Z,21.02
2024-04-14T09:00:48.900Z,21.08
2024-04-14T09:01:55.774Z,21.15
2024-04-14T09:03:02.599Z,21.18
2024-04-14T09:04:09.422Z,21.23
2024-04-14T09:05:16.260Z,21.28
2024-04-14T09:06:23.019Z,21.32
2024-04-14T09:07:29.778Z,21.34
2024-04-14T09:08:36.514Z,21.39
2024-04-14T09:09:43.258Z,21.48
2024-04-14T09:10:50.009Z,21.60
2024-04-14T09:11:56.722Z,21.67
2024-04-14T09:13:05.011Z,21.77
2024-04-14T09:14:13.913Z,21.84
2024-04-14T09:15:20.701Z,21.89
2024-04-14T09:16:27.483Z,21.93
2024-04-14T09:17:34.345Z,21.97
2024-04-14T09:18:41.096Z,22.00
2024-04-14T09:19:47.887Z,22.02
2024-04-14T09:20:54.638Z,22.04
2024-04-14T09:22:01.424Z,22.07
2024-04-14T09:23:08.191Z,22.08
2024-04-14T09:24:14.914Z,22.07
2024-04-14T09:25:21.726Z,22.08
2024-04-14T09:26:28.481Z,22.16
2024-04-14T09:27:35.252Z,22.25
2024-04-14T09:28:41.967Z,22.29
2024-04-14T09:29:48.743Z,22.32
2024-04-14T09:30:55.487Z,22.39
2024-04-14T09:32:05.326Z,22.43
2024-04-14T09:33:12.565Z,22.45
2024-04-14T09:34:19.346Z,22.46
2024-04-14T09:35:26.049Z,22.47
2024-04-14T09:36:32.826Z,22.52
2024-04-14T09:37:39.616Z,22.52
2024-04-14T09:38:46.457Z,22.52
2024-04-14T09:39:53.290Z,22.54
2024-04-14T09:41:00.007Z,22.55
2024-04-14T09:42:06.729Z,22.59
2024-04-14T09:43:13.475Z,22.66
2024-04-14T09:44:23.278Z,22.71
2024-04-14T09:45:30.242Z,22.75
2024-04-14T09:46:36.929Z,22.77
2024-04-14T09:47:43.743Z,22.82
2024-04-14T09:48:50.508Z,22.88
2024-04-14T09:49:57.264Z,22.94
2024-04-14T09:51:03.989Z,23.00
2024-04-14T09:52:10.759Z,23.06
2024-04-14T09:53:17.449Z,23.10
2024-04-14T09:54:24.194Z,23.12
2024-04-14T09:55:30.956Z,23.11
2024-04-14T09:56:37.700Z,23.11
2024-04-14T09:57:44.485Z,23.07
2024-04-14T09:58:51.152Z,23.05
2024-04-14T09:59:57.893Z,23.07
2024-04-14T10:01:04.699Z,23.09
2024-04-14T10:02:11.472Z,23.13
2024-04-14T10:03:18.215Z,23.18
2024-04-14T10:04:25.047Z,23.25
2024-04-14T10:05:31.889Z,23.28
2024-04-14T10:06:38.714Z,23.33
2024-04-14T10:07:45.450Z,23.40
2024-04-14T10:08:52.186Z,23.45
2024-04-14T10:09:58.983Z,23.52
2024-04-14T10:11:05.833Z,23.56
2024-04-14T10:12:12.649Z,23.56
2024-04-14T10:13:19.386Z,23.57
2024-04-14T10:14:26.123Z,23.56
2024-04-14T10:15:32.902Z,23.57
2024-04-14T10:16:39.682Z,23.56
2024-04-14T10:17:46.420Z,23.56
2024-04-14T10:18:53.288Z,23.55
2024-04-14T10:20:00.135Z,23.54
2024-04-14T10:21:06.866Z,23.54
2024-04-14T10:22:13.583Z,23.55
2024-04-14T10:23:20.323Z,23.57
2024-04-14T10:24:27.066Z,23.60
2024-04-14T10:25:33.853Z,23.63
2024-04-14T10:26:40.562Z,23.62
2024-04-14T10:27:47.322Z,23.61
2024-04-14T10:28:54.061Z,23.56
2024-04-14T10:30:00.790Z,23.53
2024-04-14T10:31:07.610Z,23.48
2024-04-14T10:32:14.333Z,23.50
2024-04-14T10:33:21.149Z,23.57
2024-04-14T10:34:27.945Z,23.59
2024-04-14T10:35:34.790Z,23.64
2024-04-14T10:36:42.017Z,23.69
2024-04-14T10:37:48.904Z,23.72
2024-04-14T10:38:55.628Z,23.73
2024-04-14T10:40:02.454Z,23.75
2024-04-14T10:41:09.234Z,23.73
2024-04-14T10:42:15.948Z,23.73
2024-04-14T10:43:22.679Z,23.72
2024-04-14T10:44:29.400Z,23.74
2024-04-14T10:45:36.192Z,23.78
2024-04-14T10:46:42.951Z,23.86
2024-04-14T10:47:49.687Z,23.89
2024-04-14T10:48:56.951Z,23.84
2024-04-14T10:50:03.768Z,23.80
2024-04-14T10:51:10.505Z,23.77
2024-04-14T10:52:17.235Z,23.80
2024-04-14T10:53:23.967Z,23.84
2024-04-14T10:54:30.815Z,23.87
2024-04-14T10:55:37.638Z,23.91
2024-04-14T10:56:47.424Z,23.96
2024-04-14T10:57:55.450Z,24.00
2024-04-14T10:59:02.179Z,24.07
2024-04-14T11:00:08.912Z,24.13
2024-04-14T11:01:15.735Z,24.20
2024-04-14T11:02:22.522Z,24.25
2024-04-14T11:03:29.408Z,24.28
2024-04-14T11:04:36.326Z,24.29
2024-04-14T11:05:43.132Z,24.31
2024-04-14T11:06:49.911Z,24.30
2024-04-14T11:07:56.605Z,24.34
2024-04-14T11:09:03.338Z,24.40
2024-04-14T11:10:10.130Z,24.45
2024-04-14T11:11:16.861Z,24.50
2024-04-14T11:12:23.624Z,24.59
2024-04-14T11:13:30.326Z,24.65
2024-04-14T11:14:37.046Z,24.69
2024-04-14T11:15:43.937Z,24.76
2024-04-14T11:16:50.869Z,24.81
2024-04-14T11:17:57.680Z,24.82
2024-04-14T11:19:04.508Z,24.82
2024-04-14T11:20:11.329Z,24.77
2024-04-14T11:21:18.071Z,24.77
2024-04-14T11:22:24.789Z,24.77
2024-04-14T11:23:31.536Z,24.79
2024-04-14T11:24:38.269Z,24.81
2024-04-14T11:25:45.043Z,24.85
2024-04-14T11:26:51.778Z,24.92
2024-04-14T11:27:58.554Z,25.01
2024-04-14T11:29:05.227Z,25.07
2024-04-14T11:30:11.962Z,25.12
2024-04-14T11:31:18.757Z,25.14
2024-04-14T11:32:25.554Z,25.19
2024-04-14T11:33:32.427Z,25.23
2024-04-14T11:34:39.275Z,25.24
2024-04-14T11:35:46.038Z,25.25
2024-04-14T11:36:52.776Z,25.28
2024-04-14T11:37:59.508Z,25.32
2024-04-14T11:39:06.262Z,25.36
2024-04-14T11:40:13.047Z,25.39
2024-04-14T11:41:19.850Z,25.38
2024-04-14T11:42:26.577Z,25.39
2024-04-14T11:43:33.321Z,25.38
2024-04-14T11:44:40.080Z,25.39
2024-04-14T11:45:46.871Z,25.40
2024-04-14T11:46:53.644Z,25.43
2024-04-14T11:48:00.383Z,25.48
2024-04-14T11:49:07.187Z,25.57
2024-04-14T11:50:13.905Z,25.67
2024-04-14T11:51:20.649Z,25.74
2024-04-14T11:52:27.370Z,25.77
2024-04-14T11:53:34.110Z,25.77
2024-04-14T11:54:40.854Z,25.78
2024-04-14T11:55:47.633Z,25.80
2024-04-14T11:56:54.405Z,25.83
2024-04-14T11:58:01.222Z,25.86
2024-04-14T11:59:07.962Z,25.88
2024-04-14T12:00:14.702Z,25.96
2024-04-14T12:01:21.541Z,26.01
2024-04-14T12:02:28.296Z,26.06
2024-04-14T12:03:35.046Z,26.13
2024-04-14T12:04:41.787Z,26.22
2024-04-14T12:05:48.526Z,26.30
2024-04-14T12:06:55.274Z,26.37
2024-04-14T12:08:02.030Z,26.48
2024-04-14T12:09:08.771Z,26.57
2024-04-14T12:10:15.573Z,26.62
2024-04-14T12:11:22.392Z,26.63
2024-04-14T12:12:29.210Z,26.64
2024-04-14T12:13:35.947Z,26.64
2024-04-14T12:14:42.680Z,26.59
2024-04-14T12:15:49.437Z,26.48
2024-04-14T12:16:56.264Z,26.45
2024-04-14T12:18:03.096Z,26.50
2024-04-14T12:19:09.922Z,26.53
2024-04-14T12:20:16.662Z,26.55
2024-04-14T12:21:23.375Z,26.57
2024-04-14T12:22:30.142Z,26.58
2024-04-14T12:23:36.893Z,26.60
2024-04-14T12:24:43.662Z,26.65
2024-04-14T12:25:50.430Z,26.66
2024-04-14T12:26:57.178Z,26.70
2024-04-14T12:28:04.094Z,26.85
2024-04-14T12:29:10.903Z,26.95
2024-04-14T12:30:17.717Z,26.98
2024-04-14T12:31:24.550Z,27.00
2024-04-14T12:32:31.402Z,27.03
2024-04-14T12:33:38.199Z,27.05
2024-04-14T12:34:45.038Z,27.08
2024-04-14T12:35:51.823Z,27.08
2024-04-14T12:36:58.640Z,27.14
2024-04-14T12:38:05.396Z,27.22
2024-04-14T12:39:17.181Z,27.29
2024-04-14T12:40:23.810Z,27.24
2024-04-14T12:41:30.550Z,27.23
2024-04-14T12:42:37.395Z,27.28
2024-04-14T12:43:44.140Z,27.33
2024-04-14T12:44:50.896Z,27.35
2024-04-14T12:45:57.686Z,27.38
2024-04-14T12:47:04.506Z,27.41
2024-04-14T12:48:11.499Z,27.49
2024-04-14T12:49:18.272Z,27.62
2024-04-14T12:50:32.614Z,27.73
2024-04-14T12:51:36.668Z,27.80
2024-04-14T12:52:43.407Z,27.86
2024-04-14T12:53:50.169Z,27.92
2024-04-14T12:54:56.971Z,27.86
2024-04-14T12:56:03.708Z,27.84
2024-04-14T12:57:10.466Z,27.80
2024-04-14T12:58:17.226Z,27.75
2024-04-14T12:59:23.971Z,27.68
2024-04-14T13:00:30.729Z,27.64
2024-04-14T13:01:37.528Z,27.66
2024-04-14T13:02:44.322Z,27.70
2024-04-14T13:03:51.164Z,27.76
2024-04-14T13:04:57.997Z,27.82
2024-04-14T13:06:04.758Z,27.88
2024-04-14T13:07:11.656Z,27.94
2024-04-14T13:08:18.525Z,27.98
2024-04-14T13:09:25.245Z,28.03
2024-04-14T13:10:31.997Z,28.07
2024-04-14T13:11:38.727Z,28.14
2024-04-14T13:12:45.550Z,28.23
2024-04-14T13:13:52.265Z,28.25
2024-04-14T13:14:58.996Z,28.29
2024-04-14T13:16:05.849Z,28.32
2024-04-14T13:17:12.619Z,28.31
2024-04-14T13:18:19.399Z,28.33
2024-04-14T13:19:26.121Z,28.37
2024-04-14T13:20:32.877Z,28.38
2024-04-14T13:21:39.667Z,28.38
2024-04-14T13:22:46.383Z,28.40
2024-04-14T13:23:53.100Z,28.43
2024-04-14T13:24:59.843Z,28.46
2024-04-14T13:26:06.582Z,28.44
2024-04-14T13:27:13.344Z,28.47
2024-04-14T13:28:20.091Z,28.48
2024-04-14T13:29:28.614Z,28.53
2024-04-14T13:30:37.179Z,28.61
2024-04-14T13:31:43.918Z,28.67
2024-04-14T13:32:50.765Z,28.78
2024-04-14T13:33:57.663Z,28.88
2024-04-14T13:35:04.459Z,28.96
2024-04-14T13:36:11.173Z,29.02
2024-04-14T13:37:17.936Z,29.10
2024-04-14T13:38:24.686Z,29.15
2024-04-14T13:39:31.517Z,29.20
2024-04-14T13:40:38.299Z,29.22
2024-04-14T13:41:45.030Z,29.21
2024-04-14T13:42:51.818Z,29.24
2024-04-14T13:43:58.512Z,29.34
2024-04-14T13:45:05.256Z,29.46
2024-04-14T13:46:12.017Z,29.57
2024-04-14T13:47:18.765Z,29.64
2024-04-14T13:48:25.513Z,29.72
2024-04-14T13:49:35.634Z,29.94
2024-04-14T13:50:42.917Z,30.22
2024-04-14T13:51:49.647Z,30.47
2024-04-14T13:52:56.393Z,30.62
2024-04-14T13:54:03.135Z,30.52
2024-04-14T13:55:10.095Z,30.38
2024-04-14T13:56:16.930Z,30.18
2024-04-14T13:57:23.711Z,30.00
2024-04-14T13:58:30.439Z,29.94
2024-04-14T13:59:37.194Z,30.02
2024-04-14T14:00:43.949Z,30.15
2024-04-14T14:01:50.723Z,30.41
2024-04-14T14:02:57.507Z,30.54
2024-04-14T14:04:04.407Z,30.71
2024-04-14T14:05:11.231Z,30.86
2024-04-14T14:06:17.923Z,30.81
2024-04-14T14:07:24.714Z,30.58
2024-04-14T14:08:31.442Z,30.34
2024-04-14T14:09:38.205Z,30.36
2024-04-14T14:10:44.914Z,30.53
2024-04-14T14:11:51.644Z,30.54
2024-04-14T14:12:58.553Z,30.54
2024-04-14T14:14:05.299Z,30.68
2024-04-14T14:15:12.030Z,30.72
2024-04-14T14:16:18.960Z,30.75
2024-04-14T14:17:25.741Z,30.73
2024-04-14T14:18:32.512Z,30.76
2024-04-14T14:19:39.222Z,30.82
2024-04-14T14:20:45.943Z,31.02